首页
METAR-TAF:

METAR-TAF

机场 :

Galesburg Municipal Airport

盖尔斯堡, 伊利诺伊州, 美国

纬度: 40-56-17N, 经度: 090-25-52W, 海拔: 233米

当前天气观测

该预报发布于22分钟前的03:15 UTC
风速9节,风向东北
温度 17°C
湿度 100%
气压 1005 hPa
能見度: 11.3公里
阴天层高于700英尺

METAR: KGBG 200315Z AUTO 05009KT 7SM RA OVC007 17/17 A2969 RMK AO2 P0002 T01710168

时间: 22:37 (03:37 UTC)


TAF: 丢失

超过4000个机场的气象观测和天气预报(METAR&TAF报告)。

可查询的气象台以黄色和红色小点在地图上表示。

将鼠标移到小点上方,可查看气象台名称。

然后点击查看天气观测和预报。

如需切换地图:点击带黑十字的绿色按钮放大地图;点击带横线的绿色按钮缩小地图;或者点击绿色箭头查看邻近地区的地图。


METAR-TAF: